createdAt,value
2022-10-17T00:00:34.103Z,7.82
2022-10-17T00:03:00.814Z,8.05
2022-10-17T00:05:27.497Z,8.35
2022-10-17T00:07:54.868Z,7.75
2022-10-17T00:10:22.064Z,7.55
2022-10-17T00:12:55.812Z,7.80
2022-10-17T00:15:23.535Z,7.32
2022-10-17T00:17:50.189Z,7.38
2022-10-17T00:20:17.165Z,6.97
2022-10-17T00:22:43.928Z,7.10
2022-10-17T00:25:10.897Z,7.95
2022-10-17T00:27:39.159Z,7.22
2022-10-17T00:30:07.563Z,7.10
2022-10-17T00:32:34.169Z,7.18
2022-10-17T00:35:00.792Z,6.63
2022-10-17T00:37:27.616Z,7.20
2022-10-17T00:39:54.493Z,6.35
2022-10-17T00:42:21.108Z,7.20
2022-10-17T00:44:50.694Z,6.85
2022-10-17T00:47:20.279Z,6.70
2022-10-17T00:49:47.521Z,6.60
2022-10-17T00:52:20.623Z,7.13
2022-10-17T00:54:50.920Z,6.85
2022-10-17T00:57:17.823Z,7.07
2022-10-17T00:59:47.563Z,6.63
2022-10-17T01:02:17.709Z,7.15
2022-10-17T01:04:46.927Z,7.22
2022-10-17T01:07:13.741Z,6.53
2022-10-17T01:09:41.346Z,6.97
2022-10-17T01:12:21.201Z,6.40
2022-10-17T01:14:50.773Z,6.25
2022-10-17T01:17:38.355Z,6.40
2022-10-17T01:20:14.965Z,7.05
2022-10-17T01:22:52.455Z,6.95
2022-10-17T01:25:46.814Z,7.07
2022-10-17T01:28:32.374Z,6.07
2022-10-17T01:31:15.953Z,7.57
2022-10-17T01:34:15.253Z,6.30
2022-10-17T01:36:54.761Z,6.50
2022-10-17T01:39:32.500Z,6.53
2022-10-17T01:42:06.325Z,6.72
2022-10-17T01:44:39.356Z,6.85
2022-10-17T01:47:17.024Z,6.90
2022-10-17T01:49:45.528Z,6.38
2022-10-17T01:52:15.813Z,6.85
2022-10-17T01:54:55.904Z,6.32
2022-10-17T01:57:31.436Z,6.03
2022-10-17T01:59:58.352Z,6.75
2022-10-17T02:02:26.014Z,7.47
2022-10-17T02:04:53.506Z,6.88
2022-10-17T02:07:20.217Z,6.55
2022-10-17T02:09:47.097Z,6.78
2022-10-17T02:12:31.971Z,5.68
2022-10-17T02:15:06.611Z,6.78
2022-10-17T02:17:48.362Z,6.78
2022-10-17T02:20:25.071Z,7.45
2022-10-17T02:22:56.635Z,6.75
2022-10-17T02:25:59.054Z,6.90
2022-10-17T02:28:43.014Z,6.60
2022-10-17T02:31:15.646Z,7.28
2022-10-17T02:33:58.597Z,6.82
2022-10-17T02:36:52.474Z,6.63
2022-10-17T02:39:21.120Z,6.72
2022-10-17T02:41:48.444Z,7.18
2022-10-17T02:44:15.972Z,6.65
2022-10-17T02:46:45.428Z,7.65
2022-10-17T02:49:12.019Z,7.65
2022-10-17T02:51:45.979Z,6.93
2022-10-17T02:54:21.552Z,7.28
2022-10-17T02:56:59.811Z,7.22
2022-10-17T02:59:30.297Z,7.38
2022-10-17T03:01:57.090Z,7.85
2022-10-17T03:04:24.587Z,7.35
2022-10-17T03:06:51.192Z,7.32
2022-10-17T03:09:18.317Z,7.70
2022-10-17T03:11:44.918Z,7.30
2022-10-17T03:14:11.562Z,7.28
2022-10-17T03:16:38.197Z,8.05
2022-10-17T03:19:05.185Z,7.55
2022-10-17T03:21:32.879Z,6.90
2022-10-17T03:23:59.805Z,7.75
2022-10-17T03:26:27.080Z,7.25
2022-10-17T03:28:54.612Z,7.38
2022-10-17T03:31:22.987Z,7.20
2022-10-17T03:33:50.879Z,7.55
2022-10-17T03:36:19.479Z,7.95
2022-10-17T03:38:48.078Z,8.13
2022-10-17T03:41:16.593Z,7.47
2022-10-17T03:43:43.499Z,8.45
2022-10-17T03:46:10.262Z,7.55
2022-10-17T03:48:37.799Z,7.43
2022-10-17T03:51:09.743Z,8.10
2022-10-17T03:53:58.290Z,7.90
2022-10-17T03:56:25.554Z,8.70
2022-10-17T03:59:13.040Z,8.55
2022-10-17T04:01:40.144Z,8.23
2022-10-17T04:04:07.328Z,8.75
2022-10-17T04:06:36.169Z,8.23
2022-10-17T04:09:03.587Z,8.52
2022-10-17T04:11:57.212Z,7.88
2022-10-17T04:14:24.265Z,7.95
2022-10-17T04:16:51.369Z,8.30
2022-10-17T04:19:20.605Z,8.57
2022-10-17T04:21:47.840Z,8.13
2022-10-17T04:24:15.342Z,8.02
2022-10-17T04:26:50.583Z,7.70
2022-10-17T04:29:18.764Z,7.82
2022-10-17T04:31:49.771Z,8.38
2022-10-17T04:34:24.312Z,7.63
2022-10-17T04:36:51.939Z,8.30
2022-10-17T04:39:19.171Z,7.28
2022-10-17T04:41:46.446Z,7.85
2022-10-17T04:44:13.186Z,7.82
2022-10-17T04:46:44.493Z,7.90
2022-10-17T04:49:11.115Z,8.20
2022-10-17T04:51:42.988Z,7.93
2022-10-17T04:54:18.407Z,7.60
2022-10-17T04:56:48.707Z,8.10
2022-10-17T04:59:17.826Z,7.78
2022-10-17T05:01:46.235Z,7.78
2022-10-17T05:04:13.592Z,7.90
2022-10-17T05:06:40.183Z,8.25
2022-10-17T05:09:37.695Z,8.18
2022-10-17T05:12:13.823Z,9.23
2022-10-17T05:14:44.261Z,8.18
2022-10-17T05:17:11.035Z,8.23
2022-10-17T05:19:38.634Z,7.05
2022-10-17T05:22:07.001Z,7.25
2022-10-17T05:24:35.753Z,7.65
2022-10-17T05:27:03.191Z,8.23
2022-10-17T05:29:30.399Z,8.15
2022-10-17T05:32:05.986Z,8.25
2022-10-17T05:34:34.938Z,7.70
2022-10-17T05:37:01.723Z,7.78
2022-10-17T05:39:28.416Z,8.32
2022-10-17T05:41:56.540Z,7.72
2022-10-17T05:44:23.427Z,7.72
2022-10-17T05:46:54.684Z,8.15
2022-10-17T05:49:32.659Z,8.05
2022-10-17T05:52:09.275Z,8.02
2022-10-17T05:54:50.353Z,7.75
2022-10-17T05:57:17.013Z,7.50
2022-10-17T05:59:44.030Z,7.60
2022-10-17T06:02:13.670Z,7.93
2022-10-17T06:04:45.399Z,7.28
2022-10-17T06:07:13.294Z,7.57
2022-10-17T06:09:40.704Z,8.50
2022-10-17T06:12:08.407Z,9.63
2022-10-17T06:14:35.432Z,10.15
2022-10-17T06:17:03.561Z,10.63
2022-10-17T06:19:30.240Z,8.93
2022-10-17T06:21:57.515Z,8.57
2022-10-17T06:24:27.967Z,8.30
2022-10-17T06:26:56.034Z,8.27
2022-10-17T06:29:22.753Z,7.95
2022-10-17T06:31:52.215Z,8.05
2022-10-17T06:34:21.459Z,8.35
2022-10-17T06:36:48.711Z,8.82
2022-10-17T06:39:17.645Z,8.35
2022-10-17T06:41:57.894Z,7.93
2022-10-17T06:44:40.028Z,7.78
2022-10-17T06:47:20.021Z,7.45
2022-10-17T06:49:47.924Z,7.47
2022-10-17T06:52:37.647Z,7.82
2022-10-17T06:55:23.404Z,9.20
2022-10-17T06:58:11.591Z,7.93
2022-10-17T07:01:13.152Z,8.13
2022-10-17T07:03:41.063Z,8.07
2022-10-17T07:06:08.113Z,9.35
2022-10-17T07:08:34.797Z,7.82
2022-10-17T07:11:10.837Z,7.65
2022-10-17T07:13:39.285Z,8.27
2022-10-17T07:16:07.956Z,7.75
2022-10-17T07:18:35.574Z,7.13
2022-10-17T07:21:04.396Z,7.97
2022-10-17T07:23:33.800Z,8.32
2022-10-17T07:26:09.519Z,8.18
2022-10-17T07:28:41.256Z,7.15
2022-10-17T07:31:27.894Z,6.85
2022-10-17T07:33:54.514Z,7.13
2022-10-17T07:36:24.729Z,7.00
2022-10-17T07:38:55.300Z,6.53
2022-10-17T07:41:22.169Z,6.85
2022-10-17T07:43:52.315Z,6.40
2022-10-17T07:46:23.489Z,5.47
2022-10-17T07:48:50.224Z,5.70
2022-10-17T07:51:20.129Z,5.03
2022-10-17T07:53:48.821Z,5.38
2022-10-17T07:56:15.826Z,4.47
2022-10-17T07:58:45.517Z,4.47
2022-10-17T08:01:15.516Z,4.40
2022-10-17T08:03:48.552Z,4.72
2022-10-17T08:06:15.662Z,4.47
2022-10-17T08:08:42.610Z,4.88
2022-10-17T08:11:12.609Z,4.57
2022-10-17T08:13:40.287Z,3.92
2022-10-17T08:16:10.407Z,4.00
2022-10-17T08:18:38.737Z,4.10
2022-10-17T08:21:06.337Z,3.33
2022-10-17T08:23:33.025Z,4.50
2022-10-17T08:26:01.692Z,3.92
2022-10-17T08:28:28.505Z,4.20
2022-10-17T08:31:05.923Z,3.85
2022-10-17T08:33:33.379Z,3.50
2022-10-17T08:36:01.113Z,3.70
2022-10-17T08:38:35.068Z,3.60
2022-10-17T08:41:06.981Z,4.00
2022-10-17T08:43:55.345Z,3.88
2022-10-17T08:46:22.347Z,3.17
2022-10-17T08:48:50.521Z,3.42
2022-10-17T08:51:23.356Z,3.70
2022-10-17T08:53:53.400Z,3.13
2022-10-17T08:56:44.013Z,3.53
2022-10-17T08:59:30.818Z,3.28
2022-10-17T09:02:12.094Z,3.58
2022-10-17T09:05:08.008Z,3.17
2022-10-17T09:07:47.174Z,3.15
2022-10-17T09:10:17.778Z,3.30
2022-10-17T09:12:54.367Z,3.40
2022-10-17T09:15:39.255Z,3.50
2022-10-17T09:18:25.467Z,2.92
2022-10-17T09:20:55.231Z,2.92
2022-10-17T09:23:24.834Z,3.08
2022-10-17T09:25:59.488Z,3.42
2022-10-17T09:28:31.743Z,3.42
2022-10-17T09:31:04.497Z,3.20
2022-10-17T09:33:53.956Z,3.22
2022-10-17T09:36:30.139Z,3.28
2022-10-17T09:38:59.738Z,3.03
2022-10-17T09:41:44.748Z,3.30
2022-10-17T09:44:17.856Z,2.80
2022-10-17T09:46:59.863Z,3.28
2022-10-17T09:49:32.816Z,2.85
2022-10-17T09:52:01.197Z,2.90
2022-10-17T09:54:36.567Z,2.80
2022-10-17T09:57:06.016Z,2.88
2022-10-17T09:59:38.529Z,2.53
2022-10-17T10:02:21.160Z,2.72
2022-10-17T10:05:04.218Z,3.20
2022-10-17T10:07:35.282Z,2.90
2022-10-17T10:10:03.503Z,3.17
2022-10-17T10:12:38.685Z,2.65
2022-10-17T10:15:38.706Z,2.72
2022-10-17T10:18:25.266Z,2.47
2022-10-17T10:21:10.188Z,3.38
2022-10-17T10:23:40.073Z,2.90
2022-10-17T10:26:22.926Z,2.85
2022-10-17T10:29:01.795Z,2.65
2022-10-17T10:31:37.475Z,2.50
2022-10-17T10:34:28.843Z,2.63
2022-10-17T10:36:57.761Z,3.10
2022-10-17T10:39:35.270Z,2.83
2022-10-17T10:42:03.665Z,2.88
2022-10-17T10:44:32.894Z,2.92
2022-10-17T10:47:15.664Z,3.10
2022-10-17T10:49:43.009Z,2.90
2022-10-17T10:52:16.106Z,2.72
2022-10-17T10:55:10.884Z,2.65
2022-10-17T11:00:25.842Z,2.97
2022-10-17T11:03:15.556Z,3.03
2022-10-17T11:05:46.629Z,2.63
2022-10-17T11:08:35.306Z,2.60
2022-10-17T11:11:28.251Z,2.67
2022-10-17T11:14:12.998Z,2.85
2022-10-17T11:16:56.945Z,2.97
2022-10-17T11:19:41.719Z,2.83
2022-10-17T11:22:29.136Z,2.83
2022-10-17T11:25:06.568Z,3.40
2022-10-17T11:27:34.268Z,3.70
2022-10-17T11:30:01.765Z,3.38
2022-10-17T11:32:39.166Z,3.53
2022-10-17T11:35:24.000Z,3.10
2022-10-17T11:37:55.767Z,2.90
2022-10-17T11:40:27.796Z,2.60
2022-10-17T11:43:00.582Z,2.55
2022-10-17T11:45:31.064Z,3.20
2022-10-17T11:48:03.229Z,2.85
2022-10-17T11:53:48.987Z,2.78
2022-10-17T11:56:20.471Z,3.00
2022-10-17T11:59:00.919Z,3.60
2022-10-17T12:01:59.017Z,2.88
2022-10-17T12:04:49.677Z,3.40
2022-10-17T12:07:28.582Z,3.28
2022-10-17T12:09:57.757Z,3.17
2022-10-17T12:12:30.035Z,3.47
2022-10-17T12:15:23.408Z,3.08
2022-10-17T12:18:03.796Z,2.92
2022-10-17T12:20:37.740Z,2.60
2022-10-17T12:23:13.411Z,2.67
2022-10-17T12:26:04.730Z,2.92
2022-10-17T12:28:37.737Z,3.22
2022-10-17T12:31:13.127Z,3.25
2022-10-17T12:34:00.375Z,2.90
2022-10-17T12:36:27.172Z,3.42
2022-10-17T12:39:02.858Z,3.42
2022-10-17T12:41:40.933Z,3.20
2022-10-17T12:44:13.855Z,2.95
2022-10-17T12:46:46.960Z,2.63
2022-10-17T12:49:35.972Z,3.05
2022-10-17T12:52:27.245Z,3.20
2022-10-17T12:55:07.421Z,3.17
2022-10-17T12:57:53.172Z,3.10
2022-10-17T13:00:39.068Z,3.17
2022-10-17T13:03:14.981Z,3.30
2022-10-17T13:05:52.885Z,3.35
2022-10-17T13:08:25.601Z,2.97
2022-10-17T13:10:53.931Z,2.50
2022-10-17T13:13:39.072Z,3.38
2022-10-17T13:16:05.775Z,3.13
2022-10-17T13:18:32.434Z,3.17
2022-10-17T13:21:29.047Z,3.47
2022-10-17T13:23:56.720Z,3.38
2022-10-17T13:26:25.545Z,3.67
2022-10-17T13:29:03.520Z,3.08
2022-10-17T13:31:38.782Z,3.65
2022-10-17T13:34:16.345Z,3.17
2022-10-17T13:36:48.536Z,3.20
2022-10-17T13:39:23.095Z,3.35
2022-10-17T13:41:59.343Z,3.00
2022-10-17T13:44:28.645Z,3.80
2022-10-17T13:46:58.477Z,3.10
2022-10-17T13:49:31.237Z,3.30
2022-10-17T13:51:59.804Z,3.35
2022-10-17T13:54:34.524Z,3.45
2022-10-17T13:57:02.185Z,3.08
2022-10-17T13:59:34.542Z,3.67
2022-10-17T14:02:02.030Z,3.95
2022-10-17T14:04:35.500Z,4.40
2022-10-17T14:08:05.748Z,4.65
2022-10-17T14:10:35.365Z,4.07
2022-10-17T14:13:04.361Z,3.97
2022-10-17T14:15:33.663Z,4.32
2022-10-17T14:18:07.754Z,3.92
2022-10-17T14:21:19.879Z,4.88
2022-10-17T14:23:33.365Z,4.47
2022-10-17T14:26:12.570Z,3.75
2022-10-17T14:28:41.228Z,4.90
2022-10-17T14:31:18.768Z,4.20
2022-10-17T14:33:50.601Z,3.83
2022-10-17T14:36:18.793Z,4.53
2022-10-17T14:38:48.306Z,3.97
2022-10-17T14:44:18.153Z,4.30
2022-10-17T14:46:50.431Z,4.28
2022-10-17T14:49:27.840Z,3.97
2022-10-17T14:52:31.409Z,4.00
2022-10-17T14:54:59.830Z,3.97
2022-10-17T14:57:43.879Z,3.70
2022-10-17T15:00:15.107Z,3.92
2022-10-17T15:02:43.734Z,3.47
2022-10-17T15:05:13.451Z,3.83
2022-10-17T15:07:41.980Z,3.25
2022-10-17T15:10:41.812Z,3.58
2022-10-17T15:13:31.109Z,3.78
2022-10-17T15:15:59.134Z,3.20
2022-10-17T15:18:25.887Z,4.00
2022-10-17T15:20:59.810Z,3.53
2022-10-17T15:23:33.330Z,3.35
2022-10-17T15:26:00.311Z,3.67
2022-10-17T15:28:27.491Z,3.72
2022-10-17T15:30:55.348Z,3.45
2022-10-17T15:33:22.299Z,3.20
2022-10-17T15:35:49.034Z,3.88
2022-10-17T15:38:17.244Z,3.85
2022-10-17T15:40:44.045Z,3.83
2022-10-17T15:43:10.684Z,3.95
2022-10-17T15:45:37.805Z,3.63
2022-10-17T15:48:06.678Z,4.75
2022-10-17T15:50:33.321Z,4.93
2022-10-17T15:53:00.193Z,4.80
2022-10-17T15:55:26.924Z,5.97
2022-10-17T15:57:53.727Z,5.57
2022-10-17T16:00:23.046Z,5.35
2022-10-17T16:02:50.765Z,4.85
2022-10-17T16:05:25.548Z,5.55
2022-10-17T16:07:53.482Z,5.15
2022-10-17T16:10:21.688Z,5.35
2022-10-17T16:12:49.962Z,5.22
2022-10-17T16:15:29.270Z,5.43
2022-10-17T16:17:57.052Z,4.95
2022-10-17T16:23:12.082Z,4.80
2022-10-17T16:25:40.255Z,5.80
2022-10-17T16:28:08.672Z,6.07
2022-10-17T16:30:42.549Z,5.30
2022-10-17T16:33:13.963Z,6.75
2022-10-17T16:35:41.641Z,5.95
2022-10-17T16:38:08.627Z,6.00
2022-10-17T16:40:38.342Z,5.60
2022-10-17T16:43:05.310Z,5.35
2022-10-17T16:45:32.151Z,5.97
2022-10-17T16:47:58.894Z,6.97
2022-10-17T16:50:25.703Z,5.82
2022-10-17T16:52:52.378Z,8.02
2022-10-17T16:55:19.213Z,7.75
2022-10-17T16:57:46.055Z,7.53
2022-10-17T17:00:14.604Z,7.78
2022-10-17T17:02:41.331Z,6.75
2022-10-17T17:05:08.534Z,6.25
2022-10-17T17:07:35.349Z,7.65
2022-10-17T17:10:03.296Z,6.28
2022-10-17T17:12:32.685Z,6.45
2022-10-17T17:15:00.324Z,5.85
2022-10-17T17:17:44.350Z,6.45
2022-10-17T17:20:14.209Z,6.85
2022-10-17T17:22:44.457Z,7.55
2022-10-17T17:25:13.444Z,7.82
2022-10-17T17:27:41.067Z,7.75
2022-10-17T17:30:09.126Z,7.53
2022-10-17T17:32:35.895Z,8.15
2022-10-17T17:35:02.645Z,8.00
2022-10-17T17:37:30.761Z,7.38
2022-10-17T17:39:57.657Z,8.15
2022-10-17T17:42:24.476Z,6.20
2022-10-17T17:44:52.146Z,6.25
2022-10-17T17:47:19.066Z,6.10
2022-10-17T17:49:45.946Z,7.10
2022-10-17T17:52:12.586Z,8.50
2022-10-17T17:54:40.993Z,8.60
2022-10-17T17:57:08.487Z,7.82
2022-10-17T17:59:36.379Z,8.20
2022-10-17T18:02:05.210Z,8.90
2022-10-17T18:04:31.869Z,8.98
2022-10-17T18:06:58.549Z,7.45
2022-10-17T18:09:25.189Z,6.45
2022-10-17T18:11:53.276Z,6.18
2022-10-17T18:14:23.782Z,6.55
2022-10-17T18:16:50.714Z,6.88
2022-10-17T18:19:17.795Z,6.82
2022-10-17T18:21:44.565Z,6.55
2022-10-17T18:24:11.396Z,6.47
2022-10-17T18:26:42.104Z,6.53
2022-10-17T18:29:09.067Z,6.80
2022-10-17T18:31:36.267Z,5.35
2022-10-17T18:34:04.561Z,5.40
2022-10-17T18:36:32.077Z,5.35
2022-10-17T18:38:59.850Z,4.80
2022-10-17T18:41:28.529Z,4.97
2022-10-17T18:46:42.999Z,4.32
2022-10-17T18:49:13.172Z,4.47
2022-10-17T18:51:42.440Z,4.85
2022-10-17T18:54:18.988Z,4.55
2022-10-17T18:56:46.433Z,5.00
2022-10-17T18:59:13.190Z,4.78
2022-10-17T19:01:40.117Z,4.68
2022-10-17T19:04:08.124Z,5.22
2022-10-17T19:06:36.232Z,5.15
2022-10-17T19:09:05.584Z,5.10
2022-10-17T19:11:33.502Z,5.28
2022-10-17T19:14:02.997Z,5.85
2022-10-17T19:16:36.658Z,6.90
2022-10-17T19:19:24.226Z,7.22
2022-10-17T19:21:51.292Z,7.05
2022-10-17T19:24:20.825Z,7.15
2022-10-17T19:26:50.262Z,5.65
2022-10-17T19:29:19.797Z,5.68
2022-10-17T19:31:47.933Z,6.15
2022-10-17T19:34:15.543Z,5.60
2022-10-17T19:36:42.711Z,5.97
2022-10-17T19:39:18.961Z,5.13
2022-10-17T19:41:47.585Z,5.47
2022-10-17T19:44:14.640Z,5.68
2022-10-17T19:46:41.521Z,5.18
2022-10-17T19:49:08.153Z,6.05
2022-10-17T19:51:34.811Z,5.82
2022-10-17T19:54:02.996Z,5.93
2022-10-17T19:56:32.281Z,6.15
2022-10-17T19:59:02.432Z,6.15
2022-10-17T20:01:33.302Z,6.05
2022-10-17T20:04:01.612Z,5.85
2022-10-17T20:06:28.450Z,5.97
2022-10-17T20:08:55.093Z,5.88
2022-10-17T20:11:23.926Z,5.50
2022-10-17T20:13:51.037Z,5.50
2022-10-17T20:16:23.539Z,5.78
2022-10-17T20:18:53.211Z,5.85
2022-10-17T20:21:25.016Z,5.45
2022-10-17T20:23:51.719Z,5.70
2022-10-17T20:29:17.030Z,6.18
2022-10-17T20:31:45.767Z,5.55
2022-10-17T20:34:15.286Z,5.90
2022-10-17T20:36:42.596Z,8.13
2022-10-17T20:39:11.449Z,7.20
2022-10-17T20:41:38.109Z,6.88
2022-10-17T20:44:07.099Z,6.80
2022-10-17T20:46:37.386Z,6.50
2022-10-17T20:49:06.277Z,6.95
2022-10-17T20:51:33.525Z,7.78
2022-10-17T20:54:00.345Z,7.38
2022-10-17T20:56:29.988Z,6.78
2022-10-17T20:59:00.336Z,7.75
2022-10-17T21:01:28.435Z,6.25
2022-10-17T21:03:58.267Z,6.60
2022-10-17T21:06:27.619Z,6.25
2022-10-17T21:08:55.638Z,5.88
2022-10-17T21:11:27.113Z,6.00
2022-10-17T21:14:03.269Z,6.05
2022-10-17T21:16:31.652Z,5.55
2022-10-17T21:18:58.506Z,5.25
2022-10-17T21:21:28.794Z,5.07
2022-10-17T21:23:58.126Z,5.07
2022-10-17T21:26:24.884Z,4.75
2022-10-17T21:28:51.508Z,4.22
2022-10-17T21:31:26.718Z,5.30
2022-10-17T21:33:56.325Z,5.00
2022-10-17T21:36:23.902Z,4.15
2022-10-17T21:38:52.316Z,4.50
2022-10-17T21:41:21.006Z,4.90
2022-10-17T21:43:50.509Z,4.63
2022-10-17T21:46:19.708Z,4.20
2022-10-17T21:48:47.353Z,4.82
2022-10-17T21:51:17.773Z,4.80
2022-10-17T21:53:44.659Z,4.85
2022-10-17T21:56:14.850Z,5.20
2022-10-17T21:58:41.759Z,5.60
2022-10-17T22:01:29.273Z,5.45
2022-10-17T22:03:58.204Z,4.88
2022-10-17T22:06:42.763Z,5.53
2022-10-17T22:09:18.768Z,5.80
2022-10-17T22:11:47.689Z,5.90
2022-10-17T22:14:17.361Z,6.30
2022-10-17T22:16:45.321Z,6.20
2022-10-17T22:19:13.292Z,5.78
2022-10-17T22:21:40.010Z,6.20
2022-10-17T22:24:08.822Z,5.32
2022-10-17T22:26:36.626Z,5.90
2022-10-17T22:29:05.005Z,5.40
2022-10-17T22:31:31.713Z,5.88
2022-10-17T22:33:58.377Z,6.15
2022-10-17T22:36:25.205Z,6.10
2022-10-17T22:38:52.870Z,6.13
2022-10-17T22:41:20.325Z,5.50
2022-10-17T22:43:47.008Z,5.78
2022-10-17T22:46:14.528Z,5.95
2022-10-17T22:48:41.579Z,5.68
2022-10-17T22:51:08.617Z,6.20
2022-10-17T22:53:37.263Z,6.22
2022-10-17T22:56:10.209Z,7.15
2022-10-17T22:58:38.728Z,6.50
2022-10-17T23:01:06.981Z,6.78
2022-10-17T23:03:34.438Z,6.68
2022-10-17T23:06:01.095Z,6.82
2022-10-17T23:08:27.776Z,6.28
2022-10-17T23:10:54.629Z,7.05
2022-10-17T23:13:21.946Z,6.00
2022-10-17T23:15:55.888Z,6.43
2022-10-17T23:18:24.227Z,6.68
2022-10-17T23:20:51.274Z,6.05
2022-10-17T23:23:18.702Z,6.68
2022-10-17T23:25:45.785Z,6.78
2022-10-17T23:28:12.747Z,6.53
2022-10-17T23:30:39.859Z,6.55
2022-10-17T23:33:06.952Z,7.05
2022-10-17T23:35:34.382Z,6.63
2022-10-17T23:38:01.024Z,6.80
2022-10-17T23:40:28.106Z,7.38
2022-10-17T23:42:54.730Z,6.53
2022-10-17T23:45:21.716Z,6.93
2022-10-17T23:47:48.469Z,6.85
2022-10-17T23:50:15.168Z,7.18
2022-10-17T23:52:41.923Z,6.93
2022-10-17T23:55:09.293Z,7.03
2022-10-17T23:57:35.949Z,7.20
